Time;durP1;ratioP1;P1;durP2;ratioP2;P2;SDS_P1;SDS_P2;PMS_P1;PMS_P2;Temp;Humidity;BMP_temperature;BMP_pressure;BME280_temperature;BME280_humidity;BME280_pressure;Samples;Min_cycle;Max_cycle;Signal;HPM_P1;HPM_P2
2023/04/15 00:00:14;;;;;;;13.63;5.95;;;;;;;4.72;100.00;100948.06;5030648;28;20033;-76
2023/04/15 00:02:40;;;;;;;10.15;5.85;;;;;;;4.73;100.00;100947.97;5030764;28;20029;-76
2023/04/15 00:05:06;;;;;;;8.60;5.07;;;;;;;4.74;100.00;100944.38;5029309;28;20570;-79
2023/04/15 00:07:32;;;;;;;8.30;4.75;;;;;;;4.74;100.00;100947.00;5029281;28;20116;-79
2023/04/15 00:09:58;;;;;;;11.57;7.03;;;;;;;4.74;100.00;100949.63;5028924;28;20033;-79
2023/04/15 00:12:25;;;;;;;10.63;5.38;;;;;;;4.71;100.00;100943.72;5029513;28;20107;-78
2023/04/15 00:14:51;;;;;;;8.20;5.68;;;;;;;4.70;100.00;100944.66;5030529;28;20034;-78
2023/04/15 00:17:17;;;;;;;12.20;5.93;;;;;;;4.66;100.00;100945.78;5029886;28;20079;-78
2023/04/15 00:19:44;;;;;;;11.27;6.40;;;;;;;4.63;100.00;100946.88;5031564;28;20037;-79
2023/04/15 00:22:10;;;;;;;6.93;5.10;;;;;;;4.58;100.00;100946.28;5032031;28;20064;-79
2023/04/15 00:24:35;;;;;;;9.75;5.40;;;;;;;4.51;100.00;100944.97;5029413;28;20397;-79
2023/04/15 00:27:01;;;;;;;8.70;5.60;;;;;;;4.44;100.00;100949.81;5029965;28;20065;-78
2023/04/15 00:29:26;;;;;;;9.40;6.38;;;;;;;4.39;100.00;100954.53;5031964;28;20099;-78
2023/04/15 00:31:51;;;;;;;12.00;6.30;;;;;;;4.32;100.00;100955.84;5031947;28;20455;-79
2023/04/15 00:34:17;;;;;;;10.27;6.07;;;;;;;4.26;100.00;100957.09;5030756;28;20041;-77
2023/04/15 00:36:43;;;;;;;11.98;6.97;;;;;;;4.17;100.00;100963.75;5030262;28;20140;-79
2023/04/15 00:39:09;;;;;;;8.98;6.80;;;;;;;4.10;100.00;100962.44;5029679;28;20061;-78
2023/04/15 00:41:37;;;;;;;9.60;5.85;;;;;;;4.03;100.00;100959.34;5029061;28;20124;-78
2023/04/15 00:44:04;;;;;;;14.18;6.70;;;;;;;3.97;100.00;100966.75;5030832;28;20147;-78
2023/04/15 00:46:30;;;;;;;13.18;6.82;;;;;;;3.92;100.00;100966.22;5028921;28;20121;-78
2023/04/15 00:48:56;;;;;;;9.75;6.57;;;;;;;3.85;100.00;100966.59;5030345;28;20089;-78
2023/04/15 00:51:21;;;;;;;11.90;6.32;;;;;;;3.82;100.00;100963.28;5012424;28;20124;-79
2023/04/15 00:53:47;;;;;;;12.98;6.90;;;;;;;3.83;100.00;100962.34;5030121;28;20025;-79
2023/04/15 00:56:12;;;;;;;13.65;7.80;;;;;;;3.82;100.00;100965.91;5028787;28;20045;-78
2023/04/15 00:58:38;;;;;;;11.32;7.13;;;;;;;3.83;100.00;100971.06;5028951;28;20068;-77
2023/04/15 01:01:03;;;;;;;14.45;8.43;;;;;;;3.83;100.00;100964.97;5028393;28;20448;-78
2023/04/15 01:03:29;;;;;;;13.98;7.93;;;;;;;3.84;100.00;100962.25;5030287;28;20060;-79
2023/04/15 01:05:57;;;;;;;10.63;7.85;;;;;;;3.83;100.00;100965.81;5028776;28;20034;-78
2023/04/15 01:08:31;;;;;;;10.65;7.63;;;;;;;3.86;100.00;100970.88;5029921;28;20053;-79
2023/04/15 01:10:59;;;;;;;13.25;8.00;;;;;;;3.86;100.00;100973.53;5028844;28;20033;-79
2023/04/15 01:13:25;;;;;;;11.60;7.55;;;;;;;3.86;100.00;100976.16;5029803;28;20025;-78
2023/04/15 01:15:52;;;;;;;13.73;8.43;;;;;;;3.84;100.00;100971.94;5028310;28;20434;-79
2023/04/15 01:18:18;;;;;;;14.80;8.65;;;;;;;3.86;100.00;100972.69;5030110;28;20033;-80
2023/04/15 01:20:44;;;;;;;15.48;8.60;;;;;;;3.86;100.00;100970.06;5030140;28;20042;-78
2023/04/15 01:23:10;;;;;;;11.77;8.40;;;;;;;3.86;100.00;100967.41;5028733;28;20029;-78
2023/04/15 01:25:36;;;;;;;19.98;8.40;;;;;;;3.87;100.00;100966.50;5030504;28;20121;-77
2023/04/15 01:28:02;;;;;;;13.05;8.50;;;;;;;3.89;100.00;100968.06;5029749;28;20041;-77
2023/04/15 01:30:28;;;;;;;14.88;9.25;;;;;;;3.91;100.00;100965.34;5030175;28;20327;-77
2023/04/15 01:32:53;;;;;;;13.63;8.82;;;;;;;3.90;100.00;100963.66;5012397;28;20204;-78
2023/04/15 01:35:20;;;;;;;14.25;8.45;;;;;;;3.89;100.00;100967.22;5028477;28;20149;-77
2023/04/15 01:37:46;;;;;;;17.52;8.35;;;;;;;3.88;100.00;100971.66;5030252;28;20424;-80
2023/04/15 01:40:12;;;;;;;14.60;9.20;;;;;;;3.84;100.00;100962.25;5029834;28;20328;-78
2023/04/15 01:42:38;;;;;;;12.65;8.68;;;;;;;3.85;100.00;100966.59;5028539;28;20123;-78
2023/04/15 01:45:04;;;;;;;11.30;7.68;;;;;;;3.83;100.00;100963.19;5030594;28;20034;-78
2023/04/15 01:47:29;;;;;;;14.05;8.52;;;;;;;3.81;100.00;100974.75;5032005;28;20087;-77
2023/04/15 01:49:55;;;;;;;12.85;8.32;;;;;;;3.79;100.00;100968.72;5033763;28;20097;-79
2023/04/15 01:52:21;;;;;;;11.35;8.23;;;;;;;3.77;100.00;100973.25;5033177;28;20037;-78
2023/04/15 01:54:46;;;;;;;11.93;8.05;;;;;;;3.75;100.00;100978.59;5032147;28;20038;-79
2023/04/15 01:57:12;;;;;;;11.98;7.75;;;;;;;3.75;100.00;100972.47;5031864;28;20034;-79
2023/04/15 01:59:37;;;;;;;11.20;8.13;;;;;;;3.74;100.00;100974.25;5033328;28;20033;-79
2023/04/15 02:02:04;;;;;;;10.85;8.07;;;;;;;3.73;100.00;100976.97;5032074;28;20320;-78
2023/04/15 02:04:29;;;;;;;15.00;8.23;;;;;;;3.70;100.00;100981.50;5031929;28;20084;-80
2023/04/15 02:06:55;;;;;;;11.57;8.02;;;;;;;3.68;100.00;100978.09;5031931;28;20483;-79
2023/04/15 02:09:21;;;;;;;10.93;7.30;;;;;;;3.66;100.00;100979.16;5031748;28;20123;-79
2023/04/15 02:11:46;;;;;;;12.55;7.90;;;;;;;3.63;100.00;100981.97;5031491;28;20060;-79
2023/04/15 02:14:12;;;;;;;10.23;8.20;;;;;;;3.61;100.00;100975.94;5033323;28;20116;-79
2023/04/15 02:16:37;;;;;;;9.02;8.02;;;;;;;3.57;100.00;100977.91;5033054;28;20458;-79
2023/04/15 02:19:03;;;;;;;12.68;8.02;;;;;;;3.54;100.00;100980.72;5031689;28;20034;-78
2023/04/15 02:21:29;;;;;;;8.88;7.95;;;;;;;3.53;100.00;100987.75;5032430;28;20095;-78
2023/04/15 02:23:55;;;;;;;13.55;7.22;;;;;;;3.50;100.00;100987.94;5015214;28;20128;-78
2023/04/15 02:26:21;;;;;;;10.38;7.97;;;;;;;3.48;100.00;100989.81;5031421;28;20034;-80
2023/04/15 02:28:47;;;;;;;15.77;8.15;;;;;;;3.48;100.00;100986.34;5032690;28;20037;-79
2023/04/15 02:31:13;;;;;;;10.48;7.97;;;;;;;3.46;100.00;100985.56;5030948;28;20085;-78
2023/04/15 02:33:38;;;;;;;18.23;8.77;;;;;;;3.44;100.00;100990.91;5014453;28;20036;-79
2023/04/15 02:36:04;;;;;;;12.65;8.80;;;;;;;3.42;100.00;100989.31;5014335;28;20061;-79
2023/04/15 02:38:30;;;;;;;11.88;8.68;;;;;;;3.43;100.00;100998.91;5032632;28;20494;-79
2023/04/15 02:40:56;;;;;;;15.18;8.60;;;;;;;3.40;100.00;100999.91;5032484;28;20424;-78
2023/04/15 02:43:22;;;;;;;15.48;8.57;;;;;;;3.39;100.00;101000.00;5032697;28;20475;-79
2023/04/15 02:45:47;;;;;;;12.82;9.48;;;;;;;3.39;100.00;101000.88;5032616;28;20120;-78
2023/04/15 02:48:13;;;;;;;14.60;8.77;;;;;;;3.39;100.00;100998.25;5032232;28;20116;-78
2023/04/15 02:50:39;;;;;;;15.48;9.13;;;;;;;3.39;100.00;101000.88;5014971;28;20056;-79
2023/04/15 02:53:05;;;;;;;11.88;8.95;;;;;;;3.39;100.00;101006.13;5032954;28;20060;-79
2023/04/15 02:55:31;;;;;;;12.25;8.63;;;;;;;3.38;100.00;101012.31;5014409;28;20029;-80
2023/04/15 02:57:59;;;;;;;15.75;8.65;;;;;;;3.42;100.00;101010.34;5032357;28;20025;-77
2023/04/15 03:00:25;;;;;;;16.30;8.27;;;;;;;3.45;100.00;101015.44;5014623;28;20424;-78
2023/04/15 03:02:55;;;;;;;11.90;7.97;;;;;;;3.50;100.00;101021.28;5032494;28;20043;-78
2023/04/15 03:05:23;;;;;;;15.45;8.55;;;;;;;3.54;100.00;101022.81;5032508;28;20085;-79
2023/04/15 03:07:49;;;;;;;10.82;8.50;;;;;;;3.56;100.00;101020.94;5031350;28;20056;-79
2023/04/15 03:10:14;;;;;;;12.75;7.63;;;;;;;3.59;100.00;101022.53;5014154;28;20041;-78
2023/04/15 03:12:40;;;;;;;16.98;8.20;;;;;;;3.61;100.00;101018.88;5032768;28;20336;-78
2023/04/15 03:15:07;;;;;;;13.65;8.65;;;;;;;3.62;100.00;101025.00;5030384;28;20087;-80
2023/04/15 03:17:32;;;;;;;13.40;8.43;;;;;;;3.62;100.00;101025.00;5030512;28;20074;-78
2023/04/15 03:19:58;;;;;;;13.68;8.23;;;;;;;3.60;100.00;101025.09;5032399;28;20037;-80
2023/04/15 03:22:25;;;;;;;14.57;8.68;;;;;;;3.58;100.00;101032.22;5032474;28;20037;-79
2023/04/15 03:24:50;;;;;;;12.85;8.70;;;;;;;3.56;100.00;101035.88;5014571;28;20041;-79
2023/04/15 03:27:16;;;;;;;14.43;7.78;;;;;;;3.55;100.00;101039.44;5013893;28;20033;-78
2023/04/15 03:29:41;;;;;;;16.95;8.40;;;;;;;3.52;100.00;101041.31;5030545;28;20419;-79
2023/04/15 03:32:07;;;;;;;15.75;8.20;;;;;;;3.52;100.00;101043.09;5032141;28;20030;-79
2023/04/15 03:34:32;;;;;;;15.15;8.55;;;;;;;3.49;100.00;101046.78;5032129;28;20030;-80
2023/04/15 03:36:57;;;;;;;11.15;7.80;;;;;;;3.46;100.00;101051.34;5032448;28;20060;-79
2023/04/15 03:39:23;;;;;;;13.10;7.53;;;;;;;3.41;100.00;101054.22;5032231;28;20041;-80
2023/04/15 03:41:48;;;;;;;14.43;7.90;;;;;;;3.34;100.00;101052.88;5031426;28;20034;-78
2023/04/15 03:44:14;;;;;;;13.90;8.10;;;;;;;3.26;100.00;101055.94;5029699;28;20034;-77
2023/04/15 03:46:40;;;;;;;11.45;8.00;;;;;;;3.19;100.00;101062.50;5030002;28;20091;-78
2023/04/15 03:49:06;;;;;;;14.55;8.25;;;;;;;3.11;100.00;101068.19;5030418;28;20084;-78
2023/04/15 03:51:31;;;;;;;11.63;8.13;;;;;;;3.06;100.00;101069.34;5031781;28;20500;-79
2023/04/15 03:53:57;;;;;;;13.07;8.77;;;;;;;2.99;100.00;101072.34;5030133;28;20085;-78
2023/04/15 03:56:23;;;;;;;13.07;7.85;;;;;;;2.93;100.00;101075.31;5031676;28;20088;-79
2023/04/15 03:58:48;;;;;;;10.30;7.75;;;;;;;2.87;100.00;101080.06;5030301;28;20486;-80
2023/04/15 04:01:15;;;;;;;16.63;7.95;;;;;;;2.80;100.00;101083.00;5031310;28;20386;-79
2023/04/15 04:03:41;;;;;;;10.93;7.80;;;;;;;2.74;100.00;101079.88;5032598;28;20034;-80
2023/04/15 04:06:07;;;;;;;13.00;7.90;;;;;;;2.70;100.00;101075.69;5030273;28;20056;-78
2023/04/15 04:08:32;;;;;;;14.30;8.70;;;;;;;2.65;100.00;101092.56;5030018;28;20125;-80
2023/04/15 04:10:58;;;;;;;13.02;7.68;;;;;;;2.62;100.00;101091.88;5014217;28;20103;-79
2023/04/15 04:13:23;;;;;;;13.55;8.77;;;;;;;2.56;100.00;101090.41;5032301;28;20055;-80
2023/04/15 04:15:49;;;;;;;14.23;8.57;;;;;;;2.52;100.00;101096.75;5030194;28;20057;-79
2023/04/15 04:18:14;;;;;;;13.75;8.80;;;;;;;2.49;100.00;101099.53;5030112;28;20363;-79
2023/04/15 04:20:41;;;;;;;10.90;8.07;;;;;;;2.44;100.00;101104.19;5031201;28;20443;-79
2023/04/15 04:23:07;;;;;;;12.25;7.30;;;;;;;2.44;100.00;101117.34;5031365;28;20176;-78
2023/04/15 04:25:32;;;;;;;10.30;7.55;;;;;;;2.39;100.00;101119.34;5032879;28;20502;-78
2023/04/15 04:27:58;;;;;;;9.73;7.93;;;;;;;2.39;100.00;101116.72;5031552;28;20034;-77
2023/04/15 04:30:23;;;;;;;10.65;7.82;;;;;;;2.32;100.00;101118.81;5030643;28;20472;-79
2023/04/15 04:32:50;;;;;;;12.70;7.80;;;;;;;2.26;100.00;101119.13;5030897;28;20045;-79
2023/04/15 04:35:16;;;;;;;9.27;7.30;;;;;;;2.20;100.00;101117.66;5034053;28;20060;-78
2023/04/15 04:37:41;;;;;;;11.18;7.20;;;;;;;2.15;100.00;101126.69;5033055;28;20030;-79
2023/04/15 04:40:08;;;;;;;10.45;6.97;;;;;;;2.09;100.00;101133.09;5029422;28;20462;-77
2023/04/15 04:42:33;;;;;;;15.90;8.60;;;;;;;2.05;100.00;101135.03;5030917;28;20044;-77
2023/04/15 04:44:59;;;;;;;13.00;7.97;;;;;;;2.02;100.00;101139.59;5030602;28;20053;-78
2023/04/15 04:47:24;;;;;;;11.73;8.02;;;;;;;2.01;100.00;101140.53;5030421;28;20368;-79
2023/04/15 04:49:50;;;;;;;9.20;7.28;;;;;;;1.98;100.00;101141.53;5028928;28;20041;-77
2023/04/15 04:52:15;;;;;;;16.00;9.10;;;;;;;1.97;100.00;101154.72;5028696;28;20030;-78
2023/04/15 04:54:40;;;;;;;12.27;7.07;;;;;;;1.97;100.00;101152.97;5030375;28;20072;-79
2023/04/15 04:57:06;;;;;;;13.77;9.18;;;;;;;1.98;100.00;101161.69;5012519;28;20041;-78
2023/04/15 04:59:32;;;;;;;13.50;8.30;;;;;;;2.00;100.00;101165.06;5030533;28;20029;-79
2023/04/15 05:01:58;;;;;;;15.02;8.82;;;;;;;2.01;100.00;101158.91;5030419;28;20049;-79
2023/04/15 05:04:23;;;;;;;15.45;9.57;;;;;;;2.04;100.00;101166.63;5030008;28;20471;-79
2023/04/15 05:06:49;;;;;;;11.00;8.23;;;;;;;2.07;100.00;101176.97;5030231;28;20029;-77
2023/04/15 05:09:14;;;;;;;15.27;9.20;;;;;;;2.10;100.00;101187.31;5030178;28;20336;-77
2023/04/15 05:11:40;;;;;;;20.75;9.30;;;;;;;2.13;100.00;101178.44;5028811;28;20049;-77
2023/04/15 05:14:05;;;;;;;12.48;8.55;;;;;;;2.13;100.00;101184.53;5030048;28;20560;-77
2023/04/15 05:16:31;;;;;;;13.02;8.05;;;;;;;2.17;100.00;101193.13;5028493;28;20052;-78
2023/04/15 05:18:56;;;;;;;14.00;9.00;;;;;;;2.20;100.00;101195.59;5028871;28;20037;-78
2023/04/15 05:21:22;;;;;;;13.73;9.18;;;;;;;2.20;100.00;101196.44;5033140;28;20324;-79
2023/04/15 05:23:47;;;;;;;14.13;8.90;;;;;;;2.24;100.00;101215.50;5034186;28;20039;-79
2023/04/15 05:26:13;;;;;;;12.65;9.25;;;;;;;2.27;100.00;101220.63;5033602;28;20030;-79
2023/04/15 05:28:38;;;;;;;14.52;8.98;;;;;;;2.29;100.00;101213.50;5032549;28;20057;-80
2023/04/15 05:31:04;;;;;;;17.30;9.80;;;;;;;2.33;100.00;101227.31;5033523;28;20448;-78
2023/04/15 05:33:29;;;;;;;16.58;9.40;;;;;;;2.39;100.00;101227.00;5033564;28;20034;-78
2023/04/15 05:35:55;;;;;;;14.63;9.88;;;;;;;2.44;100.00;101233.75;5033261;28;20064;-78
2023/04/15 05:38:20;;;;;;;14.98;9.27;;;;;;;2.51;100.00;101241.31;5031782;28;20064;-79
2023/04/15 05:40:45;;;;;;;15.13;9.25;;;;;;;2.56;100.00;101240.16;5031791;28;20055;-79
2023/04/15 05:43:11;;;;;;;14.57;9.38;;;;;;;2.61;100.00;101246.06;5032201;28;20417;-79
2023/04/15 05:45:36;;;;;;;14.55;8.90;;;;;;;2.70;100.00;101249.97;5031564;28;20074;-79
2023/04/15 05:48:01;;;;;;;15.88;8.85;;;;;;;2.77;100.00;101259.25;5033251;28;20029;-79
2023/04/15 05:50:27;;;;;;;12.20;7.85;;;;;;;2.85;100.00;101260.63;5033397;28;20053;-78
2023/04/15 05:52:52;;;;;;;14.75;8.98;;;;;;;2.94;100.00;101265.41;5033377;28;20025;-77
2023/04/15 05:55:18;;;;;;;10.43;8.27;;;;;;;3.07;100.00;101270.88;5033347;28;20106;-77
2023/04/15 05:57:43;;;;;;;14.68;8.52;;;;;;;3.20;100.00;101277.22;5033362;28;20030;-77
2023/04/15 06:00:09;;;;;;;15.38;9.20;;;;;;;3.37;100.00;101283.34;5032812;28;20052;-77
2023/04/15 06:02:35;;;;;;;13.63;9.07;;;;;;;3.51;100.00;101289.56;5032972;28;20095;-78
2023/04/15 06:05:00;;;;;;;13.82;8.93;;;;;;;3.66;100.00;101289.69;5033074;28;20037;-77
2023/04/15 06:07:26;;;;;;;14.35;9.70;;;;;;;3.82;100.00;101306.34;5032724;28;20131;-77
2023/04/15 06:09:51;;;;;;;12.63;8.57;;;;;;;3.97;100.00;101312.56;5032434;28;20124;-77
2023/04/15 06:12:16;;;;;;;12.38;9.13;;;;;;;4.13;100.00;101312.53;5032877;28;20102;-77
2023/04/15 06:14:42;;;;;;;13.95;8.93;;;;;;;4.30;100.00;101319.50;5031054;28;20025;-77
2023/04/15 06:17:07;;;;;;;12.90;9.05;;;;;;;4.49;100.00;101323.72;5031252;28;20376;-78
2023/04/15 06:19:35;;;;;;;14.82;9.23;;;;;;;4.68;100.00;101326.97;5032355;28;20484;-77
2023/04/15 06:22:00;;;;;;;13.90;8.20;;;;;;;4.88;100.00;101338.16;5031118;28;20034;-77
2023/04/15 06:24:26;;;;;;;20.38;11.07;;;;;;;5.07;100.00;101336.13;5031133;28;20112;-77
2023/04/15 06:26:51;;;;;;;11.48;8.70;;;;;;;5.27;100.00;101342.84;5032237;28;20317;-76
2023/04/15 06:29:16;;;;;;;13.68;8.65;;;;;;;5.47;100.00;101349.56;5030604;28;20038;-77
2023/04/15 06:31:42;;;;;;;13.55;8.13;;;;;;;5.67;100.00;101352.75;5031772;28;20026;-77
2023/04/15 06:34:07;;;;;;;12.93;8.50;;;;;;;5.82;100.00;101354.47;5014376;28;20111;-77
2023/04/15 06:36:32;;;;;;;10.60;8.32;;;;;;;6.00;100.00;101364.84;5032126;28;20517;-77
2023/04/15 06:38:58;;;;;;;13.05;8.48;;;;;;;6.16;100.00;101362.09;5032133;28;20055;-76
2023/04/15 06:41:24;;;;;;;11.88;7.75;;;;;;;6.34;100.00;101365.34;5032234;28;20459;-77
2023/04/15 06:43:50;;;;;;;13.60;8.10;;;;;;;6.50;100.00;101366.03;5031789;28;20351;-76
2023/04/15 06:46:15;;;;;;;14.40;8.82;;;;;;;6.67;100.00;101370.25;5031970;28;20029;-77
2023/04/15 06:48:41;;;;;;;9.98;7.80;;;;;;;6.82;100.00;101367.53;5032192;28;20029;-78
2023/04/15 06:51:06;;;;;;;11.55;8.43;;;;;;;6.96;100.00;101374.56;5030691;28;20427;-79
2023/04/15 06:53:32;;;;;;;11.82;8.45;;;;;;;7.07;100.00;101372.84;5014013;28;20033;-78
2023/04/15 06:55:57;;;;;;;11.30;7.93;;;;;;;7.19;100.00;101370.34;5032010;28;20343;-79
2023/04/15 06:58:23;;;;;;;11.75;8.55;;;;;;;7.32;100.00;101381.81;5031989;28;20458;-78
2023/04/15 07:00:48;;;;;;;14.88;8.30;;;;;;;7.43;100.00;101373.13;5030155;28;20324;-78
2023/04/15 07:03:14;;;;;;;13.50;8.48;;;;;;;7.56;100.00;101378.44;5032086;28;20041;-77
2023/04/15 07:05:40;;;;;;;11.25;7.72;;;;;;;7.68;100.00;101385.50;5031539;28;20404;-77
2023/04/15 07:08:06;;;;;;;10.98;7.45;;;;;;;7.79;100.00;101392.69;5030076;28;20033;-79
2023/04/15 07:10:32;;;;;;;10.23;7.82;;;;;;;7.87;100.00;101390.38;5031518;28;20021;-78
2023/04/15 07:12:58;;;;;;;13.07;7.90;;;;;;;8.00;100.00;101402.75;5030131;28;20175;-81
2023/04/15 07:15:23;;;;;;;9.10;6.90;;;;;;;8.12;100.00;101404.53;5031945;28;20160;-80
2023/04/15 07:17:49;;;;;;;10.77;7.80;;;;;;;8.20;100.00;101399.53;5031917;28;20420;-76
2023/04/15 07:20:14;;;;;;;11.95;8.18;;;;;;;8.28;100.00;101409.59;5031652;28;20113;-76
2023/04/15 07:22:40;;;;;;;9.10;7.30;;;;;;;8.37;100.00;101419.50;5031825;28;20033;-77
2023/04/15 07:25:06;;;;;;;12.38;7.72;;;;;;;8.46;100.00;101412.75;5029885;28;20133;-77
2023/04/15 07:27:32;;;;;;;10.20;7.68;;;;;;;8.57;100.00;101414.59;5031269;28;20549;-77
2023/04/15 07:29:57;;;;;;;8.73;6.35;;;;;;;8.68;100.00;101425.28;5031551;28;20112;-77
2023/04/15 07:32:23;;;;;;;9.63;7.43;;;;;;;8.75;100.00;101431.84;5029736;28;20044;-76
2023/04/15 07:34:48;;;;;;;8.60;7.13;;;;;;;8.82;100.00;101438.41;5031060;28;20037;-78
2023/04/15 07:37:14;;;;;;;10.77;7.07;;;;;;;8.95;100.00;101445.44;5031077;28;20052;-75
2023/04/15 07:39:39;;;;;;;9.20;7.05;;;;;;;9.06;100.00;101450.81;5031419;28;20514;-76
2023/04/15 07:42:04;;;;;;;9.23;6.85;;;;;;;9.20;100.00;101454.25;5030792;28;20336;-75
2023/04/15 07:44:30;;;;;;;9.77;6.82;;;;;;;9.32;100.00;101455.97;5030175;28;20040;-75
2023/04/15 07:46:55;;;;;;;11.25;7.05;;;;;;;9.43;100.00;101463.13;5031137;28;20060;-75
2023/04/15 07:49:21;;;;;;;11.63;7.00;;;;;;;9.52;100.00;101457.97;5030620;28;20120;-79
2023/04/15 07:51:47;;;;;;;9.00;7.05;;;;;;;9.60;100.00;101462.69;5030632;28;20030;-73
2023/04/15 07:54:13;;;;;;;9.25;6.85;;;;;;;9.78;100.00;101467.53;5031198;28;20057;-73
2023/04/15 07:56:38;;;;;;;9.85;7.40;;;;;;;9.92;100.00;101462.00;5030371;28;20067;-76
2023/04/15 07:59:05;;;;;;;11.90;7.28;;;;;;;10.09;100.00;101473.13;5030790;28;20099;-76
2023/04/15 08:01:31;;;;;;;9.68;7.50;;;;;;;10.32;100.00;101477.50;5030792;28;20030;-76
2023/04/15 08:03:57;;;;;;;8.73;7.43;;;;;;;10.59;100.00;101482.44;5029070;28;20033;-77
2023/04/15 08:06:23;;;;;;;12.30;7.68;;;;;;;10.94;100.00;101494.72;5030432;28;20140;-78
2023/04/15 08:08:48;;;;;;;11.75;6.80;;;;;;;11.29;100.00;101493.63;5030373;28;20117;-76
2023/04/15 08:11:14;;;;;;;10.70;7.25;;;;;;;11.63;100.00;101504.09;5029424;28;20383;-74
2023/04/15 08:13:39;;;;;;;7.70;6.20;;;;;;;12.04;100.00;101506.91;5030377;28;20026;-75
2023/04/15 08:16:22;;;;;;;9.20;6.72;;;;;;;12.59;100.00;101506.56;5030332;28;20093;-73
2023/04/15 08:18:49;;;;;;;9.40;6.07;;;;;;;13.17;100.00;101502.31;5030538;28;20065;-73
2023/04/15 08:21:15;;;;;;;11.38;6.50;;;;;;;13.71;100.00;101508.94;5030470;28;20124;-75
2023/04/15 08:23:41;;;;;;;7.82;6.20;;;;;;;14.00;100.00;101515.19;5030347;28;20108;-75
2023/04/15 08:26:08;;;;;;;11.45;6.30;;;;;;;14.28;100.00;101514.25;5029956;28;20033;-74
2023/04/15 08:28:33;;;;;;;9.02;6.63;;;;;;;14.48;100.00;101516.88;5030465;28;20160;-77
2023/04/15 08:30:59;;;;;;;7.90;6.40;;;;;;;14.20;100.00;101522.19;5030951;28;20029;-75
2023/04/15 08:33:24;;;;;;;9.27;6.68;;;;;;;14.13;100.00;101528.28;5030034;28;20109;-75
2023/04/15 08:35:50;;;;;;;7.63;5.40;;;;;;;14.03;100.00;101525.59;5029658;28;20061;-76
2023/04/15 08:38:16;;;;;;;6.85;4.72;;;;;;;13.90;100.00;101532.13;5029273;28;20171;-76
2023/04/15 08:40:43;;;;;;;6.72;5.28;;;;;;;13.83;100.00;101540.88;5029963;28;20034;-75
2023/04/15 08:43:11;;;;;;;8.10;4.57;;;;;;;13.80;100.00;101547.34;5030210;28;20048;-75
2023/04/15 08:45:40;;;;;;;7.80;4.85;;;;;;;13.83;100.00;101551.56;5030787;28;20025;-78
2023/04/15 08:48:06;;;;;;;6.90;5.07;;;;;;;13.90;100.00;101556.19;5028657;28;20025;-80
2023/04/15 08:50:32;;;;;;;10.60;6.75;;;;;;;13.81;100.00;101559.75;5031623;28;20144;-75
2023/04/15 08:52:58;;;;;;;5.10;4.60;;;;;;;13.89;99.66;101561.69;5029484;28;20491;-75
2023/04/15 08:55:30;;;;;;;9.50;5.40;;;;;;;14.08;95.76;101569.69;5031514;28;20026;-78
2023/04/15 08:57:56;;;;;;;9.35;5.47;;;;;;;14.51;94.47;101572.81;5034354;28;20026;-77
2023/04/15 09:00:22;;;;;;;6.80;4.78;;;;;;;15.07;87.33;101575.50;5033968;28;20032;-78
2023/04/15 09:02:47;;;;;;;5.20;4.53;;;;;;;15.84;76.88;101578.63;5034017;28;20041;-77
2023/04/15 09:05:13;;;;;;;5.90;4.95;;;;;;;16.87;69.39;101583.28;5032473;28;20451;-78
2023/04/15 09:07:38;;;;;;;7.95;5.13;;;;;;;17.44;60.34;101579.88;5033753;28;20049;-76
2023/04/15 09:10:04;;;;;;;9.90;5.03;;;;;;;18.11;54.35;101582.41;5034096;28;20049;-78
2023/04/15 09:12:30;;;;;;;8.60;4.80;;;;;;;18.64;53.24;101584.63;5033943;28;20045;-77
2023/04/15 09:14:56;;;;;;;6.47;5.18;;;;;;;19.42;50.98;101584.75;5034101;28;20045;-78
2023/04/15 09:17:23;;;;;;;7.07;4.45;;;;;;;19.85;48.74;101590.50;5032907;28;20122;-78
2023/04/15 09:20:02;;;;;;;6.35;5.00;;;;;;;19.74;49.51;101594.44;5032262;28;20161;-77
2023/04/15 09:22:31;;;;;;;5.55;4.47;;;;;;;20.17;47.17;101591.19;5032873;28;20030;-78
2023/04/15 09:24:56;;;;;;;5.30;4.20;;;;;;;20.84;46.47;101601.13;5033597;28;20121;-77
2023/04/15 09:27:22;;;;;;;9.35;4.80;;;;;;;21.26;45.48;101601.41;5032360;28;20108;-80
2023/04/15 09:29:50;;;;;;;6.63;4.72;;;;;;;21.57;44.39;101601.16;5033566;28;20129;-78
2023/04/15 09:32:16;;;;;;;6.47;4.30;;;;;;;21.38;41.53;101602.59;5034159;28;20055;-79
2023/04/15 09:34:43;;;;;;;5.78;4.40;;;;;;;21.55;41.58;101616.72;5034131;28;20045;-82
2023/04/15 09:37:10;;;;;;;6.00;4.35;;;;;;;22.22;41.73;101621.88;5032050;28;20044;-82
2023/04/15 09:39:50;;;;;;;4.82;3.70;;;;;;;22.39;36.92;101625.97;5033692;28;20075;-73
2023/04/15 09:42:26;;;;;;;5.85;4.20;;;;;;;22.05;37.42;101627.59;5033900;28;20118;-76
2023/04/15 09:44:54;;;;;;;8.63;4.30;;;;;;;21.73;40.61;101634.41;5032515;28;20036;-74
2023/04/15 09:47:28;;;;;;;6.05;3.90;;;;;;;21.46;39.39;101634.09;5031814;28;20455;-74
2023/04/15 09:50:00;;;;;;;5.07;3.95;;;;;;;21.36;39.62;101637.09;5033641;28;20147;-75
2023/04/15 09:52:26;;;;;;;7.20;2.63;;;;;;;21.47;37.74;101633.06;5033614;28;20051;-74
2023/04/15 09:54:57;;;;;;;5.60;2.63;;;;;;;21.46;37.06;101639.50;5033007;28;20078;-76
2023/04/15 09:57:23;;;;;;;3.75;2.80;;;;;;;20.96;37.34;101652.88;5033269;28;20451;-78
2023/04/15 09:59:49;;;;;;;4.80;3.17;;;;;;;21.55;36.90;101643.81;5033653;28;20045;-75
2023/04/15 10:02:17;;;;;;;4.65;2.97;;;;;;;21.69;37.62;101652.91;5033345;28;20468;-74
2023/04/15 10:04:43;;;;;;;5.18;3.00;;;;;;;21.68;37.51;101651.22;5033411;28;20080;-74
2023/04/15 10:07:11;;;;;;;5.75;3.20;;;;;;;21.38;37.42;101655.84;5032450;28;20033;-73
2023/04/15 10:09:37;;;;;;;4.15;2.90;;;;;;;22.20;37.28;101654.63;5033260;28;20029;-75
2023/04/15 10:12:04;;;;;;;4.07;3.05;;;;;;;22.14;36.63;101658.94;5033326;28;20057;-76
2023/04/15 10:14:33;;;;;;;4.22;2.53;;;;;;;21.78;36.90;101657.16;5031936;28;20124;-74
2023/04/15 10:17:01;;;;;;;10.27;2.95;;;;;;;21.63;37.55;101657.22;5033422;28;20091;-74
2023/04/15 10:19:32;;;;;;;3.42;2.63;;;;;;;21.90;37.31;101656.63;5033633;28;20112;-72
2023/04/15 10:21:58;;;;;;;10.55;2.75;;;;;;;22.04;36.64;101663.84;5033295;28;20033;-72
2023/04/15 10:24:24;;;;;;;4.00;1.92;;;;;;;22.46;37.50;101664.00;5031997;28;20423;-73
2023/04/15 10:26:51;;;;;;;4.78;1.80;;;;;;;22.26;36.22;101672.78;5033265;28;20117;-74
2023/04/15 10:29:17;;;;;;;4.38;2.05;;;;;;;23.00;33.90;101670.56;5031965;28;20029;-73
2023/04/15 10:31:43;;;;;;;3.90;2.20;;;;;;;22.87;33.49;101680.31;5031692;28;20036;-73
2023/04/15 10:34:09;;;;;;;3.30;2.10;;;;;;;23.18;34.42;101678.19;5032983;28;20347;-72
2023/04/15 10:36:35;;;;;;;3.58;2.38;;;;;;;23.19;34.16;101675.25;5033284;28;20049;-73
2023/04/15 10:39:00;;;;;;;4.25;2.13;;;;;;;22.65;34.08;101676.03;5031426;28;20026;-73
2023/04/15 10:41:33;;;;;;;7.18;2.28;;;;;;;22.87;36.12;101674.91;5032908;28;20044;-74
2023/04/15 10:43:58;;;;;;;6.82;2.30;;;;;;;23.00;36.71;101676.00;5033542;28;20391;-72
2023/04/15 10:46:39;;;;;;;5.60;2.70;;;;;;;23.27;34.54;101676.97;5032059;28;20029;-74
2023/04/15 10:49:10;;;;;;;5.40;2.45;;;;;;;24.17;31.98;101681.31;5033018;28;20075;-74
2023/04/15 10:51:46;;;;;;;4.72;2.55;;;;;;;23.35;33.98;101673.25;5032856;28;20084;-75
2023/04/15 10:54:29;;;;;;;3.55;2.30;;;;;;;23.75;32.97;101678.75;5032815;28;20116;-73
2023/04/15 10:57:01;;;;;;;3.20;2.17;;;;;;;23.88;34.29;101676.09;5031622;28;20353;-74
2023/04/15 10:59:37;;;;;;;5.72;2.70;;;;;;;23.40;33.56;101678.91;5032308;28;20041;-73
2023/04/15 11:02:06;;;;;;;4.97;2.25;;;;;;;24.03;34.32;101684.03;5032431;28;20036;-73
2023/04/15 11:04:57;;;;;;;2.78;2.38;;;;;;;23.88;32.84;101689.66;5032438;28;20036;-72
2023/04/15 11:07:49;;;;;;;5.97;2.50;;;;;;;22.39;34.50;101701.06;5031784;28;20033;-73
2023/04/15 11:10:24;;;;;;;4.22;1.90;;;;;;;21.97;34.28;101695.47;5032054;28;20037;-72
2023/04/15 11:12:56;;;;;;;4.93;2.15;;;;;;;22.27;34.47;101700.72;5030784;28;20034;-74
2023/04/15 11:15:29;;;;;;;4.10;2.35;;;;;;;22.09;34.90;101702.03;5032042;28;20116;-71